Terminal Aerodrome Forecast
Issued by NWS Austin/San Antonio, TX

Home | Current Version | Previous Version | Text Only | Print | Product List | Glossary On
Versions: 1 2 3 4 5 6 7 8 9 10 11 12
000
FTUS44 KEWX 232325
TAFDRT
TAF
KDRT 232325Z 2400/2424 11010KT P6SM FEW250
     FM241500 11007KT P6SM BKN030
     FM241800 10011KT P6SM FEW250=

USA.gov is the U.S. government's official web portal to all federal, state and local government web resources and services.